sensor_id;sensor_type;location;lat;lon;timestamp;pressure;altitude;pressure_sealevel;temperature;humidity
21236;BME280;10775;42.678;26.324;2022-08-01T00:01:43;98183.47;;;25.63;46.30
21236;BME280;10775;42.678;26.324;2022-08-01T00:04:08;98168.63;;;25.40;50.53
21236;BME280;10775;42.678;26.324;2022-08-01T00:06:34;98177.38;;;25.61;51.50
21236;BME280;10775;42.678;26.324;2022-08-01T00:08:59;98171.75;;;25.64;48.51
21236;BME280;10775;42.678;26.324;2022-08-01T00:11:25;98168.81;;;25.77;47.95
21236;BME280;10775;42.678;26.324;2022-08-01T00:13:50;98161.31;;;24.80;42.72
21236;BME280;10775;42.678;26.324;2022-08-01T00:16:16;98146.97;;;24.81;48.19
21236;BME280;10775;42.678;26.324;2022-08-01T00:18:42;98156.06;;;24.48;42.54
21236;BME280;10775;42.678;26.324;2022-08-01T00:21:07;98156.78;;;24.39;42.41
21236;BME280;10775;42.678;26.324;2022-08-01T00:23:33;98153.97;;;25.34;50.96
21236;BME280;10775;42.678;26.324;2022-08-01T00:25:59;98167.72;;;24.99;46.94
21236;BME280;10775;42.678;26.324;2022-08-01T00:28:24;98143.44;;;25.62;50.17
21236;BME280;10775;42.678;26.324;2022-08-01T00:30:50;98146.94;;;25.43;45.00
21236;BME280;10775;42.678;26.324;2022-08-01T00:33:15;98142.06;;;24.86;41.82
21236;BME280;10775;42.678;26.324;2022-08-01T00:35:41;98136.72;;;24.23;41.12
21236;BME280;10775;42.678;26.324;2022-08-01T00:38:06;98136.75;;;24.96;51.40
21236;BME280;10775;42.678;26.324;2022-08-01T00:40:32;98146.38;;;25.08;40.73
21236;BME280;10775;42.678;26.324;2022-08-01T00:42:57;98137.94;;;25.13;48.73
21236;BME280;10775;42.678;26.324;2022-08-01T00:45:23;98154.22;;;24.69;39.89
21236;BME280;10775;42.678;26.324;2022-08-01T00:47:48;98138.16;;;24.69;40.37
21236;BME280;10775;42.678;26.324;2022-08-01T00:50:14;98140.84;;;24.06;42.65
21236;BME280;10775;42.678;26.324;2022-08-01T00:52:41;98135.53;;;25.10;43.55
21236;BME280;10775;42.678;26.324;2022-08-01T00:55:09;98160.81;;;24.12;48.62
21236;BME280;10775;42.678;26.324;2022-08-01T01:00:44;98145.56;;;24.03;43.30
21236;BME280;10775;42.678;26.324;2022-08-01T01:03:10;98141.69;;;24.07;51.36
21236;BME280;10775;42.678;26.324;2022-08-01T01:05:44;98142.47;;;24.40;47.01
21236;BME280;10775;42.678;26.324;2022-08-01T01:08:18;98133.69;;;24.70;42.62
21236;BME280;10775;42.678;26.324;2022-08-01T01:11:08;98134.81;;;25.29;41.46
21236;BME280;10775;42.678;26.324;2022-08-01T01:13:43;98137.78;;;25.45;47.84
21236;BME280;10775;42.678;26.324;2022-08-01T01:16:14;98133.78;;;25.80;48.94
21236;BME280;10775;42.678;26.324;2022-08-01T01:18:49;98138.88;;;25.02;44.15
21236;BME280;10775;42.678;26.324;2022-08-01T01:29:26;98127.09;;;24.11;42.76
21236;BME280;10775;42.678;26.324;2022-08-01T01:32:43;98133.28;;;23.91;45.14
21236;BME280;10775;42.678;26.324;2022-08-01T01:34:50;98134.50;;;24.28;43.11
21236;BME280;10775;42.678;26.324;2022-08-01T01:37:23;98127.06;;;25.05;49.26
21236;BME280;10775;42.678;26.324;2022-08-01T01:39:51;98132.75;;;24.81;42.67
21236;BME280;10775;42.678;26.324;2022-08-01T01:42:17;98129.03;;;25.24;49.18
21236;BME280;10775;42.678;26.324;2022-08-01T01:44:45;98115.63;;;23.99;44.10
21236;BME280;10775;42.678;26.324;2022-08-01T01:47:13;98115.31;;;24.14;45.06
21236;BME280;10775;42.678;26.324;2022-08-01T01:49:40;98106.28;;;24.47;47.51
21236;BME280;10775;42.678;26.324;2022-08-01T01:52:07;98105.06;;;23.98;44.03
21236;BME280;10775;42.678;26.324;2022-08-01T01:54:40;98107.72;;;23.77;52.06
21236;BME280;10775;42.678;26.324;2022-08-01T01:57:07;98118.13;;;24.12;43.50
21236;BME280;10775;42.678;26.324;2022-08-01T01:59:36;98090.97;;;24.49;47.89
21236;BME280;10775;42.678;26.324;2022-08-01T02:02:04;98112.19;;;24.08;45.91
21236;BME280;10775;42.678;26.324;2022-08-01T02:04:32;98107.31;;;24.56;46.73
21236;BME280;10775;42.678;26.324;2022-08-01T02:06:59;98098.06;;;24.60;50.80
21236;BME280;10775;42.678;26.324;2022-08-01T02:09:27;98103.63;;;24.78;42.04
21236;BME280;10775;42.678;26.324;2022-08-01T02:11:53;98103.38;;;24.39;45.06
21236;BME280;10775;42.678;26.324;2022-08-01T02:14:22;98110.56;;;24.17;45.00
21236;BME280;10775;42.678;26.324;2022-08-01T02:16:49;98101.84;;;24.88;50.41
21236;BME280;10775;42.678;26.324;2022-08-01T02:19:19;98118.66;;;25.09;44.92
21236;BME280;10775;42.678;26.324;2022-08-01T02:21:49;98115.88;;;24.80;49.90
21236;BME280;10775;42.678;26.324;2022-08-01T02:24:27;98101.97;;;24.86;48.47
21236;BME280;10775;42.678;26.324;2022-08-01T02:26:57;98100.78;;;24.27;44.72
21236;BME280;10775;42.678;26.324;2022-08-01T02:29:33;98113.44;;;25.58;48.73
21236;BME280;10775;42.678;26.324;2022-08-01T02:32:01;98111.75;;;25.47;46.59
21236;BME280;10775;42.678;26.324;2022-08-01T02:34:29;98090.34;;;25.67;44.51
21236;BME280;10775;42.678;26.324;2022-08-01T02:36:57;98095.72;;;24.24;42.78
21236;BME280;10775;42.678;26.324;2022-08-01T02:39:26;98102.91;;;24.76;43.06
21236;BME280;10775;42.678;26.324;2022-08-01T02:41:54;98097.72;;;24.32;44.04
21236;BME280;10775;42.678;26.324;2022-08-01T02:44:28;98101.00;;;25.28;48.75
21236;BME280;10775;42.678;26.324;2022-08-01T02:47:00;98109.63;;;25.10;41.31
21236;BME280;10775;42.678;26.324;2022-08-01T02:49:33;98109.72;;;24.59;41.90
21236;BME280;10775;42.678;26.324;2022-08-01T02:52:01;98105.88;;;24.30;41.90
21236;BME280;10775;42.678;26.324;2022-08-01T02:54:31;98110.75;;;25.08;45.95
21236;BME280;10775;42.678;26.324;2022-08-01T02:56:58;98108.72;;;24.39;45.61
21236;BME280;10775;42.678;26.324;2022-08-01T02:59:27;98104.75;;;24.75;48.66
21236;BME280;10775;42.678;26.324;2022-08-01T03:01:57;98098.63;;;23.68;41.20
21236;BME280;10775;42.678;26.324;2022-08-01T03:04:24;98106.97;;;25.01;49.18
21236;BME280;10775;42.678;26.324;2022-08-01T03:06:53;98103.13;;;24.63;42.00
21236;BME280;10775;42.678;26.324;2022-08-01T03:09:19;98115.41;;;25.36;47.64
21236;BME280;10775;42.678;26.324;2022-08-01T03:11:46;98114.13;;;25.41;47.13
21236;BME280;10775;42.678;26.324;2022-08-01T03:14:14;98114.25;;;23.84;40.44
21236;BME280;10775;42.678;26.324;2022-08-01T03:16:41;98120.72;;;24.23;49.73
21236;BME280;10775;42.678;26.324;2022-08-01T03:19:10;98108.03;;;24.37;40.54
21236;BME280;10775;42.678;26.324;2022-08-01T03:21:37;98113.13;;;24.19;49.60
21236;BME280;10775;42.678;26.324;2022-08-01T03:24:05;98121.28;;;25.30;47.90
21236;BME280;10775;42.678;26.324;2022-08-01T03:26:34;98132.13;;;24.98;46.38
21236;BME280;10775;42.678;26.324;2022-08-01T03:29:06;98138.63;;;23.79;39.89
21236;BME280;10775;42.678;26.324;2022-08-01T03:31:34;98123.06;;;23.96;43.38
21236;BME280;10775;42.678;26.324;2022-08-01T03:34:01;98123.59;;;24.32;46.17
21236;BME280;10775;42.678;26.324;2022-08-01T03:36:28;98129.25;;;24.38;49.00
21236;BME280;10775;42.678;26.324;2022-08-01T03:38:57;98127.78;;;24.45;39.95
21236;BME280;10775;42.678;26.324;2022-08-01T03:41:27;98131.09;;;23.30;41.79
21236;BME280;10775;42.678;26.324;2022-08-01T03:43:58;98122.78;;;23.78;41.38
21236;BME280;10775;42.678;26.324;2022-08-01T03:46:40;98127.50;;;24.27;44.99
21236;BME280;10775;42.678;26.324;2022-08-01T03:49:11;98124.09;;;24.25;47.87
21236;BME280;10775;42.678;26.324;2022-08-01T03:51:40;98122.69;;;24.94;40.22
21236;BME280;10775;42.678;26.324;2022-08-01T03:54:07;98126.31;;;24.41;38.85
21236;BME280;10775;42.678;26.324;2022-08-01T03:56:34;98137.38;;;25.09;42.27
21236;BME280;10775;42.678;26.324;2022-08-01T03:59:02;98141.44;;;23.12;40.50
21236;BME280;10775;42.678;26.324;2022-08-01T04:01:29;98130.13;;;23.31;41.43
21236;BME280;10775;42.678;26.324;2022-08-01T04:03:58;98132.19;;;24.56;48.73
21236;BME280;10775;42.678;26.324;2022-08-01T04:06:24;98123.72;;;24.51;39.42
21236;BME280;10775;42.678;26.324;2022-08-01T04:08:50;98124.44;;;24.53;38.62
21236;BME280;10775;42.678;26.324;2022-08-01T04:11:26;98138.63;;;23.91;41.19
21236;BME280;10775;42.678;26.324;2022-08-01T04:13:53;98129.50;;;23.93;39.36
21236;BME280;10775;42.678;26.324;2022-08-01T04:16:20;98128.88;;;23.90;46.99
21236;BME280;10775;42.678;26.324;2022-08-01T04:18:46;98135.38;;;24.29;48.50
21236;BME280;10775;42.678;26.324;2022-08-01T04:21:13;98142.22;;;23.90;39.99
21236;BME280;10775;42.678;26.324;2022-08-01T04:23:41;98130.13;;;23.85;42.80
21236;BME280;10775;42.678;26.324;2022-08-01T04:26:10;98137.06;;;24.09;46.60
21236;BME280;10775;42.678;26.324;2022-08-01T04:28:39;98129.47;;;25.08;45.78
21236;BME280;10775;42.678;26.324;2022-08-01T04:31:08;98128.47;;;24.68;47.01
21236;BME280;10775;42.678;26.324;2022-08-01T04:33:40;98125.09;;;24.45;41.13
21236;BME280;10775;42.678;26.324;2022-08-01T04:36:09;98131.09;;;24.59;38.39
21236;BME280;10775;42.678;26.324;2022-08-01T04:38:35;98135.47;;;24.60;44.83
21236;BME280;10775;42.678;26.324;2022-08-01T04:41:02;98134.94;;;24.24;37.96
21236;BME280;10775;42.678;26.324;2022-08-01T04:43:32;98139.09;;;24.59;47.58
21236;BME280;10775;42.678;26.324;2022-08-01T04:45:58;98135.16;;;24.84;45.81
21236;BME280;10775;42.678;26.324;2022-08-01T04:48:24;98133.88;;;24.78;37.47
21236;BME280;10775;42.678;26.324;2022-08-01T04:50:51;98123.00;;;24.70;47.05
21236;BME280;10775;42.678;26.324;2022-08-01T04:53:19;98129.72;;;25.26;38.81
21236;BME280;10775;42.678;26.324;2022-08-01T04:55:47;98132.81;;;25.00;40.26
21236;BME280;10775;42.678;26.324;2022-08-01T04:58:16;98140.56;;;24.93;38.55
21236;BME280;10775;42.678;26.324;2022-08-01T05:00:42;98128.31;;;24.91;39.54
21236;BME280;10775;42.678;26.324;2022-08-01T05:03:07;98126.59;;;24.59;38.71
21236;BME280;10775;42.678;26.324;2022-08-01T05:05:34;98119.50;;;25.10;42.88
21236;BME280;10775;42.678;26.324;2022-08-01T05:08:00;98137.72;;;24.85;41.17
21236;BME280;10775;42.678;26.324;2022-08-01T05:10:26;98139.13;;;25.20;44.77
21236;BME280;10775;42.678;26.324;2022-08-01T05:12:52;98125.78;;;25.30;45.42
21236;BME280;10775;42.678;26.324;2022-08-01T05:15:18;98125.75;;;25.20;37.40
21236;BME280;10775;42.678;26.324;2022-08-01T05:17:43;98123.47;;;24.85;38.63
21236;BME280;10775;42.678;26.324;2022-08-01T05:20:10;98118.38;;;24.51;43.77
21236;BME280;10775;42.678;26.324;2022-08-01T05:22:37;98123.03;;;24.80;37.28
21236;BME280;10775;42.678;26.324;2022-08-01T05:25:03;98121.69;;;25.26;38.77
21236;BME280;10775;42.678;26.324;2022-08-01T05:27:30;98123.28;;;25.48;45.75
21236;BME280;10775;42.678;26.324;2022-08-01T05:29:56;98130.41;;;25.28;40.46
21236;BME280;10775;42.678;26.324;2022-08-01T05:32:22;98133.00;;;25.39;39.88
21236;BME280;10775;42.678;26.324;2022-08-01T05:34:48;98133.06;;;25.78;39.25
21236;BME280;10775;42.678;26.324;2022-08-01T05:37:14;98143.34;;;25.73;40.99
21236;BME280;10775;42.678;26.324;2022-08-01T05:39:40;98132.75;;;24.81;40.10
21236;BME280;10775;42.678;26.324;2022-08-01T05:42:06;98141.88;;;25.09;44.24
21236;BME280;10775;42.678;26.324;2022-08-01T05:44:32;98151.09;;;25.16;42.74
21236;BME280;10775;42.678;26.324;2022-08-01T05:46:57;98139.28;;;24.67;36.25
21236;BME280;10775;42.678;26.324;2022-08-01T05:49:23;98135.00;;;24.76;41.14
21236;BME280;10775;42.678;26.324;2022-08-01T05:51:51;98128.75;;;25.46;43.23
21236;BME280;10775;42.678;26.324;2022-08-01T05:54:20;98128.69;;;25.67;43.12
21236;BME280;10775;42.678;26.324;2022-08-01T05:56:47;98126.88;;;25.17;38.66
21236;BME280;10775;42.678;26.324;2022-08-01T05:59:16;98154.78;;;25.25;41.49
21236;BME280;10775;42.678;26.324;2022-08-01T06:01:46;98148.88;;;25.31;36.80
21236;BME280;10775;42.678;26.324;2022-08-01T06:04:16;98142.88;;;25.58;41.95
21236;BME280;10775;42.678;26.324;2022-08-01T06:06:41;98147.50;;;25.06;41.29
21236;BME280;10775;42.678;26.324;2022-08-01T06:09:07;98141.41;;;24.94;36.04
21236;BME280;10775;42.678;26.324;2022-08-01T06:11:33;98129.47;;;25.29;36.45
21236;BME280;10775;42.678;26.324;2022-08-01T06:13:58;98136.56;;;25.69;40.80
21236;BME280;10775;42.678;26.324;2022-08-01T06:16:24;98129.34;;;25.40;35.96
21236;BME280;10775;42.678;26.324;2022-08-01T06:18:50;98131.44;;;25.46;36.02
21236;BME280;10775;42.678;26.324;2022-08-01T06:21:15;98138.94;;;25.12;37.45
21236;BME280;10775;42.678;26.324;2022-08-01T06:23:41;98137.22;;;25.42;38.06
21236;BME280;10775;42.678;26.324;2022-08-01T06:26:07;98109.81;;;26.17;36.17
21236;BME280;10775;42.678;26.324;2022-08-01T06:28:33;98135.84;;;25.67;36.08
21236;BME280;10775;42.678;26.324;2022-08-01T06:30:59;98123.88;;;25.71;35.70
21236;BME280;10775;42.678;26.324;2022-08-01T06:33:26;98124.06;;;25.89;38.27
21236;BME280;10775;42.678;26.324;2022-08-01T06:35:52;98132.56;;;25.44;43.97
21236;BME280;10775;42.678;26.324;2022-08-01T06:38:17;98118.13;;;26.05;38.37
21236;BME280;10775;42.678;26.324;2022-08-01T06:40:43;98119.38;;;26.59;38.33
21236;BME280;10775;42.678;26.324;2022-08-01T06:43:09;98110.97;;;27.09;35.75
21236;BME280;10775;42.678;26.324;2022-08-01T06:45:38;98107.50;;;26.99;33.53
21236;BME280;10775;42.678;26.324;2022-08-01T06:48:04;98091.50;;;27.07;33.87
21236;BME280;10775;42.678;26.324;2022-08-01T06:50:30;98106.81;;;27.52;32.54
21236;BME280;10775;42.678;26.324;2022-08-01T06:52:56;98114.72;;;27.53;32.32
21236;BME280;10775;42.678;26.324;2022-08-01T06:55:22;98084.84;;;27.84;31.58
21236;BME280;10775;42.678;26.324;2022-08-01T06:57:49;98099.28;;;27.73;33.09
21236;BME280;10775;42.678;26.324;2022-08-01T07:00:16;98081.84;;;28.05;36.14
21236;BME280;10775;42.678;26.324;2022-08-01T07:02:44;98078.78;;;28.44;36.82
21236;BME280;10775;42.678;26.324;2022-08-01T07:05:10;98087.81;;;27.99;33.52
21236;BME280;10775;42.678;26.324;2022-08-01T07:07:37;98082.56;;;27.89;33.57
21236;BME280;10775;42.678;26.324;2022-08-01T07:10:03;98082.31;;;27.83;32.57
21236;BME280;10775;42.678;26.324;2022-08-01T07:12:28;98082.31;;;28.45;30.97
21236;BME280;10775;42.678;26.324;2022-08-01T07:14:54;98086.06;;;28.34;31.22
21236;BME280;10775;42.678;26.324;2022-08-01T07:17:20;98081.53;;;28.34;31.14
21236;BME280;10775;42.678;26.324;2022-08-01T07:19:46;98080.28;;;28.21;30.97
21236;BME280;10775;42.678;26.324;2022-08-01T07:22:12;98067.81;;;28.19;31.07
21236;BME280;10775;42.678;26.324;2022-08-01T07:24:40;98076.84;;;28.36;30.67
21236;BME280;10775;42.678;26.324;2022-08-01T07:27:07;98064.69;;;28.50;30.64
21236;BME280;10775;42.678;26.324;2022-08-01T07:29:32;98061.66;;;29.14;28.70
21236;BME280;10775;42.678;26.324;2022-08-01T07:31:58;98063.56;;;28.87;29.04
21236;BME280;10775;42.678;26.324;2022-08-01T07:34:24;98060.47;;;28.74;29.37
21236;BME280;10775;42.678;26.324;2022-08-01T07:36:51;98069.38;;;28.04;31.26
21236;BME280;10775;42.678;26.324;2022-08-01T07:39:18;98065.59;;;28.93;28.38
21236;BME280;10775;42.678;26.324;2022-08-01T07:41:44;98065.06;;;29.32;29.78
21236;BME280;10775;42.678;26.324;2022-08-01T07:44:10;98073.25;;;28.80;29.72
21236;BME280;10775;42.678;26.324;2022-08-01T07:46:35;98068.50;;;28.22;28.66
21236;BME280;10775;42.678;26.324;2022-08-01T07:49:01;98069.91;;;28.52;29.98
21236;BME280;10775;42.678;26.324;2022-08-01T07:51:27;98077.16;;;29.20;29.96
21236;BME280;10775;42.678;26.324;2022-08-01T07:53:52;98077.38;;;29.00;34.68
21236;BME280;10775;42.678;26.324;2022-08-01T07:56:19;98088.44;;;29.23;35.28
21236;BME280;10775;42.678;26.324;2022-08-01T07:58:45;98078.13;;;29.86;36.84
21236;BME280;10775;42.678;26.324;2022-08-01T08:01:12;98074.22;;;29.64;35.79
21236;BME280;10775;42.678;26.324;2022-08-01T08:03:37;98077.56;;;29.41;31.58
21236;BME280;10775;42.678;26.324;2022-08-01T08:06:03;98086.59;;;29.32;37.88
21236;BME280;10775;42.678;26.324;2022-08-01T08:08:29;98095.53;;;28.98;36.47
21236;BME280;10775;42.678;26.324;2022-08-01T08:10:55;98094.34;;;28.93;32.97
21236;BME280;10775;42.678;26.324;2022-08-01T08:13:21;98087.63;;;29.31;34.56
21236;BME280;10775;42.678;26.324;2022-08-01T08:15:47;98090.66;;;28.68;33.67
21236;BME280;10775;42.678;26.324;2022-08-01T08:18:12;98071.16;;;28.92;32.26
21236;BME280;10775;42.678;26.324;2022-08-01T08:20:38;98088.34;;;29.58;38.35
21236;BME280;10775;42.678;26.324;2022-08-01T08:23:04;98069.91;;;29.71;35.29
21236;BME280;10775;42.678;26.324;2022-08-01T08:25:49;98079.53;;;29.31;39.92
21236;BME280;10775;42.678;26.324;2022-08-01T08:28:15;98081.91;;;29.42;32.50
21236;BME280;10775;42.678;26.324;2022-08-01T08:30:41;98064.16;;;29.90;39.24
21236;BME280;10775;42.678;26.324;2022-08-01T08:33:07;98070.06;;;29.69;39.02
21236;BME280;10775;42.678;26.324;2022-08-01T08:35:32;98073.28;;;29.89;37.32
21236;BME280;10775;42.678;26.324;2022-08-01T08:37:58;98081.19;;;30.16;34.47
21236;BME280;10775;42.678;26.324;2022-08-01T08:40:29;98082.34;;;29.72;36.02
21236;BME280;10775;42.678;26.324;2022-08-01T08:42:56;98064.34;;;29.97;31.58
21236;BME280;10775;42.678;26.324;2022-08-01T08:45:23;98071.06;;;29.93;32.24
21236;BME280;10775;42.678;26.324;2022-08-01T08:47:49;98072.59;;;30.04;30.49
21236;BME280;10775;42.678;26.324;2022-08-01T08:50:16;98078.47;;;29.08;31.39
21236;BME280;10775;42.678;26.324;2022-08-01T08:52:43;98099.19;;;29.82;36.69
21236;BME280;10775;42.678;26.324;2022-08-01T08:55:11;98073.50;;;28.95;31.21
21236;BME280;10775;42.678;26.324;2022-08-01T08:57:40;98085.66;;;29.58;33.92
21236;BME280;10775;42.678;26.324;2022-08-01T09:00:08;98075.28;;;29.79;36.09
21236;BME280;10775;42.678;26.324;2022-08-01T09:02:35;98069.06;;;29.95;31.03
21236;BME280;10775;42.678;26.324;2022-08-01T09:05:01;98068.38;;;29.85;36.84
21236;BME280;10775;42.678;26.324;2022-08-01T09:07:27;98069.25;;;30.02;36.84
21236;BME280;10775;42.678;26.324;2022-08-01T09:09:53;98066.78;;;30.72;34.03
21236;BME280;10775;42.678;26.324;2022-08-01T09:12:19;98053.91;;;30.99;29.29
21236;BME280;10775;42.678;26.324;2022-08-01T09:14:46;98072.03;;;30.66;31.25
21236;BME280;10775;42.678;26.324;2022-08-01T09:17:12;98067.84;;;30.47;31.68
21236;BME280;10775;42.678;26.324;2022-08-01T09:19:45;98059.13;;;29.96;33.35
21236;BME280;10775;42.678;26.324;2022-08-01T09:22:18;98054.78;;;30.27;29.71
21236;BME280;10775;42.678;26.324;2022-08-01T09:25:06;98058.63;;;30.33;33.68
21236;BME280;10775;42.678;26.324;2022-08-01T09:27:34;98060.81;;;29.80;31.78
21236;BME280;10775;42.678;26.324;2022-08-01T09:30:29;98063.34;;;29.74;31.21
21236;BME280;10775;42.678;26.324;2022-08-01T09:33:03;98065.84;;;30.08;32.14
21236;BME280;10775;42.678;26.324;2022-08-01T09:35:34;98076.28;;;29.70;30.42
21236;BME280;10775;42.678;26.324;2022-08-01T09:38:21;98068.91;;;29.97;31.05
21236;BME280;10775;42.678;26.324;2022-08-01T09:43:15;98047.81;;;30.41;30.62
21236;BME280;10775;42.678;26.324;2022-08-01T09:45:41;98077.97;;;29.96;34.01
21236;BME280;10775;42.678;26.324;2022-08-01T09:48:11;98050.03;;;30.13;30.88
21236;BME280;10775;42.678;26.324;2022-08-01T09:50:47;98055.41;;;30.29;30.31
21236;BME280;10775;42.678;26.324;2022-08-01T09:53:15;98047.66;;;30.26;29.91
21236;BME280;10775;42.678;26.324;2022-08-01T09:55:41;98064.34;;;29.89;33.67
21236;BME280;10775;42.678;26.324;2022-08-01T09:58:07;98073.19;;;28.98;35.08
21236;BME280;10775;42.678;26.324;2022-08-01T10:00:34;98057.78;;;29.75;30.91
21236;BME280;10775;42.678;26.324;2022-08-01T10:03:20;98065.19;;;29.98;33.13
21236;BME280;10775;42.678;26.324;2022-08-01T10:05:46;98062.44;;;29.48;31.71
21236;BME280;10775;42.678;26.324;2022-08-01T10:08:13;98051.88;;;29.80;32.44
21236;BME280;10775;42.678;26.324;2022-08-01T10:10:39;98062.31;;;29.66;31.16
21236;BME280;10775;42.678;26.324;2022-08-01T10:13:06;98054.69;;;29.62;32.38
21236;BME280;10775;42.678;26.324;2022-08-01T10:15:32;98044.81;;;29.87;35.04
21236;BME280;10775;42.678;26.324;2022-08-01T10:18:01;98044.66;;;29.72;33.04
21236;BME280;10775;42.678;26.324;2022-08-01T10:20:28;98056.59;;;29.69;34.97
21236;BME280;10775;42.678;26.324;2022-08-01T10:22:55;98058.44;;;29.85;32.13
21236;BME280;10775;42.678;26.324;2022-08-01T10:25:23;98056.56;;;29.02;32.04
21236;BME280;10775;42.678;26.324;2022-08-01T10:27:53;98056.16;;;29.40;31.27
21236;BME280;10775;42.678;26.324;2022-08-01T10:30:22;98056.94;;;30.32;32.70
21236;BME280;10775;42.678;26.324;2022-08-01T10:32:50;98053.28;;;30.72;30.23
21236;BME280;10775;42.678;26.324;2022-08-01T10:35:18;98055.94;;;29.84;33.60
21236;BME280;10775;42.678;26.324;2022-08-01T10:37:45;98038.88;;;29.51;33.35
21236;BME280;10775;42.678;26.324;2022-08-01T10:40:14;98036.38;;;30.06;33.35
21236;BME280;10775;42.678;26.324;2022-08-01T10:42:42;98044.47;;;30.06;31.68
21236;BME280;10775;42.678;26.324;2022-08-01T10:45:10;98054.06;;;30.01;30.35
21236;BME280;10775;42.678;26.324;2022-08-01T10:47:52;98048.69;;;30.25;33.24
21236;BME280;10775;42.678;26.324;2022-08-01T10:50:27;98044.63;;;29.80;33.13
21236;BME280;10775;42.678;26.324;2022-08-01T10:53:24;98048.81;;;29.58;35.12
21236;BME280;10775;42.678;26.324;2022-08-01T10:58:36;98057.09;;;30.39;30.42
21236;BME280;10775;42.678;26.324;2022-08-01T11:03:57;98059.28;;;30.27;30.82
21236;BME280;10775;42.678;26.324;2022-08-01T11:06:53;98057.38;;;30.60;29.61
21236;BME280;10775;42.678;26.324;2022-08-01T11:10:16;98054.06;;;30.01;30.36
21236;BME280;10775;42.678;26.324;2022-08-01T11:12:39;98071.44;;;29.23;30.70
21236;BME280;10775;42.678;26.324;2022-08-01T11:17:38;98061.06;;;29.36;30.13
21236;BME280;10775;42.678;26.324;2022-08-01T11:20:11;98068.28;;;29.28;29.38
21236;BME280;10775;42.678;26.324;2022-08-01T11:30:40;98055.38;;;29.64;30.07
21236;BME280;10775;42.678;26.324;2022-08-01T11:33:06;98055.41;;;29.88;30.67
21236;BME280;10775;42.678;26.324;2022-08-01T11:35:32;98054.75;;;29.95;30.88
21236;BME280;10775;42.678;26.324;2022-08-01T11:38:24;98050.03;;;29.72;29.01
21236;BME280;10775;42.678;26.324;2022-08-01T11:41:14;98051.78;;;29.31;28.98
21236;BME280;10775;42.678;26.324;2022-08-01T11:44:00;98064.66;;;29.69;28.59
21236;BME280;10775;42.678;26.324;2022-08-01T11:47:05;98054.16;;;29.34;30.64
21236;BME280;10775;42.678;26.324;2022-08-01T11:52:08;98049.53;;;29.77;30.71
21236;BME280;10775;42.678;26.324;2022-08-01T11:54:36;98045.66;;;29.96;28.55
21236;BME280;10775;42.678;26.324;2022-08-01T11:57:11;98042.28;;;29.94;28.36
21236;BME280;10775;42.678;26.324;2022-08-01T11:59:39;98043.88;;;30.60;27.94
21236;BME280;10775;42.678;26.324;2022-08-01T12:02:15;98046.34;;;30.30;30.10
21236;BME280;10775;42.678;26.324;2022-08-01T12:04:56;98038.25;;;29.73;30.91
21236;BME280;10775;42.678;26.324;2022-08-01T12:07:23;98056.34;;;28.96;32.07
21236;BME280;10775;42.678;26.324;2022-08-01T12:10:00;98044.25;;;28.92;32.10
21236;BME280;10775;42.678;26.324;2022-08-01T12:12:28;98057.94;;;29.98;34.09
21236;BME280;10775;42.678;26.324;2022-08-01T12:15:06;98055.03;;;29.59;33.45
21236;BME280;10775;42.678;26.324;2022-08-01T12:17:38;98050.00;;;29.56;32.77
21236;BME280;10775;42.678;26.324;2022-08-01T12:20:06;98036.16;;;29.34;36.63
21236;BME280;10775;42.678;26.324;2022-08-01T12:22:33;98038.94;;;30.00;32.84
21236;BME280;10775;42.678;26.324;2022-08-01T12:25:10;98030.53;;;29.86;37.10
21236;BME280;10775;42.678;26.324;2022-08-01T12:27:38;98047.44;;;29.38;31.93
21236;BME280;10775;42.678;26.324;2022-08-01T12:30:09;98033.69;;;29.90;31.55
21236;BME280;10775;42.678;26.324;2022-08-01T12:32:37;98036.31;;;29.33;31.42
21236;BME280;10775;42.678;26.324;2022-08-01T12:35:16;98029.47;;;30.04;32.86
21236;BME280;10775;42.678;26.324;2022-08-01T12:37:49;98042.97;;;29.79;33.48
21236;BME280;10775;42.678;26.324;2022-08-01T12:40:17;98023.25;;;30.03;30.78
21236;BME280;10775;42.678;26.324;2022-08-01T12:42:49;98032.44;;;30.58;31.29
21236;BME280;10775;42.678;26.324;2022-08-01T12:45:20;98021.66;;;30.50;29.47
21236;BME280;10775;42.678;26.324;2022-08-01T12:47:47;98014.97;;;30.21;31.95
21236;BME280;10775;42.678;26.324;2022-08-01T12:50:16;98012.31;;;30.05;33.53
21236;BME280;10775;42.678;26.324;2022-08-01T12:52:43;98015.00;;;30.13;30.52
21236;BME280;10775;42.678;26.324;2022-08-01T12:55:15;98021.72;;;30.33;31.07
21236;BME280;10775;42.678;26.324;2022-08-01T12:57:45;98023.00;;;30.54;30.99
21236;BME280;10775;42.678;26.324;2022-08-01T13:00:25;98008.38;;;30.48;30.78
21236;BME280;10775;42.678;26.324;2022-08-01T13:03:12;98004.03;;;30.31;31.21
21236;BME280;10775;42.678;26.324;2022-08-01T13:08:14;98014.19;;;30.76;29.90
21236;BME280;10775;42.678;26.324;2022-08-01T13:10:41;98007.81;;;30.61;32.15
21236;BME280;10775;42.678;26.324;2022-08-01T13:13:07;98015.69;;;29.74;30.55
21236;BME280;10775;42.678;26.324;2022-08-01T13:15:39;98008.41;;;30.16;32.88
21236;BME280;10775;42.678;26.324;2022-08-01T13:21:07;98013.31;;;29.96;31.88
21236;BME280;10775;42.678;26.324;2022-08-01T13:23:34;98012.47;;;30.11;30.72
21236;BME280;10775;42.678;26.324;2022-08-01T13:26:00;98011.44;;;30.37;31.45
21236;BME280;10775;42.678;26.324;2022-08-01T13:28:26;98008.25;;;30.17;30.54
21236;BME280;10775;42.678;26.324;2022-08-01T13:33:26;98023.72;;;30.48;29.95
21236;BME280;10775;42.678;26.324;2022-08-01T13:35:54;98018.22;;;30.72;30.04
21236;BME280;10775;42.678;26.324;2022-08-01T13:38:20;98023.06;;;30.21;33.14
21236;BME280;10775;42.678;26.324;2022-08-01T13:41:07;98008.47;;;29.66;31.38